Fort Jackson, South Carolina
Current Conditions -  °F | °C
As of 12:53 PM on Friday 28 Nov 2014 (Local Time) from KCUB Reporting Station
Clear Clear  
Wind Chill: 46°   Ceiling: Unl
Heat Index: 46°   Visibility: 10mi
Dew Point: 19°   Wind: 3mph
Humidity: 34%   Direction: NA
Pressure: 30.36"   Gusts: NA
Location:  34.0229°N, 80.929°W
Report Text: KCUB 281753Z AUTO VRB03KT 10SM CLR 08/M07 A3036 RMK AO2 SLP282 T00781072 10078 21017 58025
Loading
Personal Weather Stations






























Interactive Weather Map New forecast layout! Learn more

10-Day Weather Forecast

Advertisements
Track Severe Weather on mobile